createdAt,value
2017-08-01T00:02:20.944Z,95.90
2017-08-01T00:04:48.478Z,95.90
2017-08-01T00:07:16.387Z,95.90
2017-08-01T00:09:43.899Z,95.80
2017-08-01T00:12:11.458Z,96.20
2017-08-01T00:14:39.367Z,96.20
2017-08-01T00:17:06.879Z,96.20
2017-08-01T00:19:34.506Z,96.30
2017-08-01T00:22:02.015Z,95.90
2017-08-01T00:24:29.918Z,96.20
2017-08-01T00:26:57.447Z,96.20
2017-08-01T00:29:25.354Z,96.30
2017-08-01T00:31:52.865Z,96.30
2017-08-01T00:34:20.403Z,96.00
2017-08-01T00:36:47.914Z,96.20
2017-08-01T00:39:15.434Z,96.10
2017-08-01T00:41:43.177Z,96.80
2017-08-01T00:44:10.682Z,97.00
2017-08-01T00:46:38.582Z,97.20
2017-08-01T00:49:06.114Z,97.20
2017-08-01T00:51:34.022Z,96.80
2017-08-01T00:54:01.527Z,96.80
2017-08-01T00:56:29.458Z,97.10
2017-08-01T00:58:56.975Z,97.10
2017-08-01T01:01:24.494Z,96.90
2017-08-01T01:03:52.035Z,97.00
2017-08-01T01:06:19.567Z,96.90
2017-08-01T01:08:47.092Z,96.70
2017-08-01T01:11:15.027Z,97.00
2017-08-01T01:13:42.539Z,97.00
2017-08-01T01:16:10.046Z,97.30
2017-08-01T01:18:37.574Z,97.60
2017-08-01T01:21:05.086Z,97.90
2017-08-01T01:23:32.599Z,98.10
2017-08-01T01:26:00.134Z,98.10
2017-08-01T01:28:28.044Z,97.50
2017-08-01T01:30:55.547Z,97.50
2017-08-01T01:33:23.492Z,97.40
2017-08-01T01:35:51.011Z,97.40
2017-08-01T01:38:18.523Z,97.20
2017-08-01T01:40:46.054Z,96.60
2017-08-01T01:43:13.567Z,96.50
2017-08-01T01:45:41.480Z,96.90
2017-08-01T01:48:09.014Z,96.90
2017-08-01T01:50:36.527Z,96.90
2017-08-01T01:53:04.042Z,96.50
2017-08-01T01:55:31.579Z,95.80
2017-08-01T01:57:59.484Z,95.20
2017-08-01T02:00:26.990Z,95.20
2017-08-01T02:02:54.523Z,94.90
2017-08-01T02:05:22.033Z,93.90
2017-08-01T02:07:49.543Z,91.50
2017-08-01T02:10:17.074Z,89.20
2017-08-01T02:12:44.595Z,88.40
2017-08-01T02:15:12.098Z,87.20
2017-08-01T02:17:39.626Z,87.60
2017-08-01T02:20:07.539Z,89.40
2017-08-01T02:22:35.071Z,89.40
2017-08-01T02:25:02.628Z,90.90
2017-08-01T02:27:30.534Z,92.70
2017-08-01T02:29:58.103Z,92.70
2017-08-01T02:32:25.614Z,93.80
2017-08-01T02:34:53.522Z,96.30
2017-08-01T02:37:21.054Z,96.30
2017-08-01T02:39:48.962Z,98.80
2017-08-01T02:42:16.474Z,98.80
2017-08-01T02:44:44.403Z,99.90
2017-08-01T02:47:11.912Z,99.90
2017-08-01T02:49:39.427Z,99.90
2017-08-01T02:52:06.968Z,99.90
2017-08-01T02:54:34.478Z,99.90
2017-08-01T02:57:01.984Z,99.90
2017-08-01T02:59:29.514Z,99.90
2017-08-01T03:01:57.427Z,99.90
2017-08-01T03:04:24.944Z,99.90
2017-08-01T03:06:52.890Z,99.90
2017-08-01T03:09:20.414Z,99.90
2017-08-01T03:11:47.937Z,99.90
2017-08-01T03:14:15.567Z,99.90
2017-08-01T03:16:43.539Z,99.90
2017-08-01T03:19:11.965Z,99.90
2017-08-01T03:21:39.527Z,99.90
2017-08-01T03:24:07.079Z,99.90
2017-08-01T03:26:34.705Z,99.90
2017-08-01T03:29:02.336Z,99.90
2017-08-01T03:31:30.314Z,99.90
2017-08-01T03:33:57.909Z,99.90
2017-08-01T03:36:25.439Z,99.90
2017-08-01T03:38:52.946Z,99.90
2017-08-01T03:41:20.852Z,99.90
2017-08-01T03:43:48.389Z,99.90
2017-08-01T03:48:52.671Z,99.90
2017-08-01T03:51:20.192Z,99.90
2017-08-01T03:53:47.700Z,99.90
2017-08-01T03:56:15.243Z,99.90
2017-08-01T03:58:42.751Z,99.90
2017-08-01T04:01:10.658Z,99.90
2017-08-01T04:03:38.191Z,99.90
2017-08-01T04:06:05.694Z,99.90
2017-08-01T04:08:33.202Z,99.90
2017-08-01T04:11:00.725Z,99.90
2017-08-01T04:13:28.233Z,99.90
2017-08-01T04:15:55.738Z,99.90
2017-08-01T04:21:00.052Z,99.90
2017-08-01T04:23:27.595Z,99.90
2017-08-01T04:25:55.107Z,99.90
2017-08-01T04:28:22.619Z,99.90
2017-08-01T04:30:50.145Z,99.90
2017-08-01T04:33:17.650Z,99.90
2017-08-01T04:35:45.159Z,99.90
2017-08-01T04:38:12.698Z,99.90
2017-08-01T04:40:40.202Z,99.90
2017-08-01T04:43:07.707Z,99.90
2017-08-01T04:45:35.249Z,99.90
2017-08-01T04:48:02.994Z,99.90
2017-08-01T04:50:30.503Z,99.90
2017-08-01T04:52:58.051Z,99.90
2017-08-01T04:55:25.560Z,99.90
2017-08-01T04:57:53.475Z,99.90
2017-08-01T05:00:21.011Z,99.90
2017-08-01T05:02:48.518Z,99.90
2017-08-01T05:05:16.031Z,99.90
2017-08-01T05:07:43.560Z,99.90
2017-08-01T05:10:11.466Z,99.90
2017-08-01T05:12:38.978Z,99.90
2017-08-01T05:15:06.511Z,99.90
2017-08-01T05:17:34.026Z,99.90
2017-08-01T05:20:01.535Z,99.90
2017-08-01T05:22:29.076Z,99.90
2017-08-01T05:24:56.588Z,99.70
2017-08-01T05:27:24.091Z,99.50
2017-08-01T05:29:51.623Z,97.80
2017-08-01T05:32:19.524Z,96.80
2017-08-01T05:34:47.026Z,96.80
2017-08-01T05:37:14.558Z,96.60
2017-08-01T05:39:42.060Z,96.80
2017-08-01T05:42:09.570Z,96.30
2017-08-01T05:44:37.094Z,96.30
2017-08-01T05:47:04.998Z,96.50
2017-08-01T05:49:32.526Z,96.50
2017-08-01T05:52:00.450Z,96.00
2017-08-01T05:54:27.961Z,96.00
2017-08-01T05:56:55.499Z,95.90
2017-08-01T05:59:23.412Z,95.60
2017-08-01T06:01:50.919Z,95.60
2017-08-01T06:04:18.463Z,95.70
2017-08-01T06:06:45.970Z,95.80
2017-08-01T06:09:13.875Z,95.80
2017-08-01T06:11:41.419Z,95.80
2017-08-01T06:14:08.930Z,95.80
2017-08-01T06:16:36.547Z,95.80
2017-08-01T06:19:04.074Z,95.70
2017-08-01T06:21:31.605Z,96.10
2017-08-01T06:23:59.167Z,96.20
2017-08-01T06:26:26.682Z,96.30
2017-08-01T06:28:54.227Z,96.20
2017-08-01T06:31:21.781Z,96.30
2017-08-01T06:33:49.711Z,95.80
2017-08-01T06:36:17.256Z,95.80
2017-08-01T06:38:44.800Z,95.30
2017-08-01T06:41:12.333Z,94.50
2017-08-01T06:43:40.341Z,93.20
2017-08-01T06:46:07.859Z,93.10
2017-08-01T06:48:35.778Z,91.20
2017-08-01T06:51:03.282Z,91.10
2017-08-01T06:53:31.191Z,90.70
2017-08-01T06:55:58.730Z,90.70
2017-08-01T06:58:26.247Z,89.70
2017-08-01T07:00:53.767Z,89.30
2017-08-01T07:03:21.318Z,89.80
2017-08-01T07:05:48.844Z,89.60
2017-08-01T07:08:16.361Z,91.10
2017-08-01T07:10:44.169Z,90.40
2017-08-01T07:13:11.723Z,90.40
2017-08-01T07:15:39.246Z,89.70
2017-08-01T07:18:06.801Z,89.70
2017-08-01T07:20:34.319Z,89.00
2017-08-01T07:23:02.667Z,88.90
2017-08-01T07:25:30.214Z,88.70
2017-08-01T07:27:57.734Z,88.90
2017-08-01T07:30:25.259Z,87.40
2017-08-01T07:32:52.804Z,87.20
2017-08-01T07:35:20.316Z,87.10
2017-08-01T07:37:47.839Z,86.30
2017-08-01T07:40:15.367Z,86.30
2017-08-01T07:42:43.233Z,86.60
2017-08-01T07:45:10.932Z,85.80
2017-08-01T07:47:38.634Z,85.10
2017-08-01T07:50:06.534Z,84.80
2017-08-01T07:52:34.227Z,84.80
2017-08-01T07:55:01.790Z,84.30
2017-08-01T07:57:29.315Z,84.40
2017-08-01T07:59:56.850Z,83.00
2017-08-01T08:02:24.359Z,82.60
2017-08-01T08:04:51.880Z,82.10
2017-08-01T08:07:19.421Z,83.30
2017-08-01T08:09:46.954Z,82.70
2017-08-01T08:12:14.493Z,83.50
2017-08-01T08:14:41.996Z,82.40
2017-08-01T08:17:09.930Z,80.40
2017-08-01T08:19:37.416Z,80.40
2017-08-01T08:22:04.959Z,80.90
2017-08-01T08:24:32.457Z,81.50
2017-08-01T08:27:00.381Z,79.00
2017-08-01T08:29:27.890Z,79.10
2017-08-01T08:31:55.434Z,79.50
2017-08-01T08:34:23.383Z,78.90
2017-08-01T08:36:50.900Z,78.90
2017-08-01T08:39:18.417Z,79.00
2017-08-01T08:41:45.963Z,79.50
2017-08-01T08:44:13.495Z,79.10
2017-08-01T08:46:41.006Z,78.50
2017-08-01T08:49:08.921Z,77.80
2017-08-01T08:51:36.478Z,77.80
2017-08-01T08:54:03.999Z,76.80
2017-08-01T08:56:31.907Z,78.20
2017-08-01T08:58:59.700Z,78.20
2017-08-01T09:01:27.848Z,77.00
2017-08-01T09:03:55.414Z,77.00
2017-08-01T09:06:22.995Z,75.80
2017-08-01T09:08:50.534Z,76.40
2017-08-01T09:11:18.097Z,75.30
2017-08-01T09:13:46.672Z,75.40
2017-08-01T09:16:14.207Z,75.70
2017-08-01T09:18:42.151Z,75.00
2017-08-01T09:21:09.658Z,75.00
2017-08-01T09:23:37.218Z,75.10
2017-08-01T09:26:04.742Z,74.50
2017-08-01T09:28:32.263Z,74.90
2017-08-01T09:30:59.770Z,74.10
2017-08-01T09:33:27.683Z,74.10
2017-08-01T09:35:55.215Z,74.10
2017-08-01T09:38:22.727Z,73.00
2017-08-01T09:40:50.233Z,75.40
2017-08-01T09:43:18.163Z,73.70
2017-08-01T09:45:45.689Z,73.70
2017-08-01T09:48:13.219Z,74.10
2017-08-01T09:50:41.127Z,75.00
2017-08-01T09:53:08.634Z,75.00
2017-08-01T09:55:36.557Z,73.70
2017-08-01T09:58:04.077Z,73.60
2017-08-01T10:00:31.979Z,71.50
2017-08-01T10:02:59.506Z,71.50
2017-08-01T10:05:27.410Z,72.30
2017-08-01T10:07:54.910Z,72.20
2017-08-01T10:10:22.437Z,72.60
2017-08-01T10:12:49.955Z,72.90
2017-08-01T10:15:17.880Z,70.10
2017-08-01T10:17:45.407Z,70.20
2017-08-01T10:20:12.915Z,70.00
2017-08-01T10:22:40.447Z,68.80
2017-08-01T10:25:07.965Z,67.70
2017-08-01T10:27:35.870Z,68.60
2017-08-01T10:30:03.426Z,68.60
2017-08-01T10:32:30.945Z,66.00
2017-08-01T10:34:58.450Z,66.00
2017-08-01T10:37:25.990Z,68.60
2017-08-01T10:39:53.511Z,68.50
2017-08-01T10:42:21.040Z,67.10
2017-08-01T10:44:48.575Z,67.90
2017-08-01T10:47:16.088Z,66.40
2017-08-01T10:49:43.590Z,66.00
2017-08-01T10:52:11.123Z,65.20
2017-08-01T10:54:39.036Z,66.00
2017-08-01T10:57:06.542Z,66.00
2017-08-01T10:59:34.114Z,65.90
2017-08-01T11:02:02.019Z,65.40
2017-08-01T11:04:29.546Z,65.40
2017-08-01T11:06:57.474Z,64.60
2017-08-01T11:09:24.974Z,64.60
2017-08-01T11:11:52.478Z,64.00
2017-08-01T11:14:20.007Z,65.10
2017-08-01T11:16:47.515Z,67.00
2017-08-01T11:19:15.034Z,66.40
2017-08-01T11:21:42.571Z,67.00
2017-08-01T11:24:10.095Z,66.90
2017-08-01T11:26:37.608Z,64.20
2017-08-01T11:29:05.166Z,63.80
2017-08-01T11:31:33.070Z,63.60
2017-08-01T11:34:00.579Z,63.60
2017-08-01T11:36:28.528Z,64.80
2017-08-01T11:38:56.030Z,64.80
2017-08-01T11:41:23.551Z,65.90
2017-08-01T11:43:51.102Z,65.40
2017-08-01T11:46:18.611Z,63.70
2017-08-01T11:48:46.138Z,64.20
2017-08-01T11:51:13.674Z,65.40
2017-08-01T11:53:41.182Z,65.30
2017-08-01T11:56:09.082Z,64.50
2017-08-01T11:58:36.615Z,64.50
2017-08-01T12:01:05.091Z,64.40
2017-08-01T12:03:32.623Z,64.30
2017-08-01T12:06:00.163Z,64.70
2017-08-01T12:08:27.682Z,62.50
2017-08-01T12:10:55.590Z,62.80
2017-08-01T12:13:23.122Z,62.80
2017-08-01T12:15:50.699Z,64.30
2017-08-01T12:18:18.239Z,63.70
2017-08-01T12:20:45.774Z,63.40
2017-08-01T12:23:13.285Z,60.70
2017-08-01T12:25:40.809Z,62.20
2017-08-01T12:28:08.750Z,62.70
2017-08-01T12:30:36.268Z,62.70
2017-08-01T12:33:03.779Z,62.60
2017-08-01T12:35:31.318Z,62.70
2017-08-01T12:37:58.820Z,62.30
2017-08-01T12:40:26.736Z,64.20
2017-08-01T12:42:54.327Z,64.20
2017-08-01T12:45:21.830Z,65.00
2017-08-01T12:47:49.332Z,65.50
2017-08-01T12:50:16.860Z,64.60
2017-08-01T12:52:44.362Z,64.50
2017-08-01T12:55:11.869Z,63.50
2017-08-01T12:57:39.394Z,64.20
2017-08-01T13:00:06.898Z,65.00
2017-08-01T13:02:34.408Z,63.00
2017-08-01T13:05:02.027Z,63.00
2017-08-01T13:07:29.531Z,66.30
2017-08-01T13:09:57.071Z,61.80
2017-08-01T13:12:24.604Z,61.90
2017-08-01T13:14:52.110Z,63.10
2017-08-01T13:17:19.614Z,61.30
2017-08-01T13:19:47.137Z,61.60
2017-08-01T13:22:14.644Z,61.70
2017-08-01T13:24:42.146Z,62.30
2017-08-01T13:27:09.693Z,63.20
2017-08-01T13:29:37.232Z,62.30
2017-08-01T13:32:04.743Z,59.80
2017-08-01T13:34:32.299Z,60.00
2017-08-01T13:36:59.810Z,62.80
2017-08-01T13:39:27.320Z,62.60
2017-08-01T13:41:54.867Z,61.00
2017-08-01T13:44:22.370Z,62.30
2017-08-01T13:46:49.879Z,64.60
2017-08-01T13:49:17.412Z,63.50
2017-08-01T13:51:44.913Z,59.50
2017-08-01T13:54:12.416Z,59.80
2017-08-01T13:56:39.938Z,59.60
2017-08-01T13:59:07.443Z,61.00
2017-08-01T14:01:34.951Z,55.30
2017-08-01T14:04:02.478Z,56.70
2017-08-01T14:06:29.979Z,57.00
2017-08-01T14:08:57.490Z,57.70
2017-08-01T14:11:25.022Z,58.50
2017-08-01T14:13:52.546Z,56.00
2017-08-01T14:16:20.050Z,55.60
2017-08-01T14:18:47.587Z,56.30
2017-08-01T14:21:15.490Z,56.50
2017-08-01T14:23:43.002Z,56.50
2017-08-01T14:26:10.530Z,57.70
2017-08-01T14:28:38.040Z,58.00
2017-08-01T14:31:05.955Z,56.90
2017-08-01T14:33:33.484Z,56.90
2017-08-01T14:36:00.987Z,57.40
2017-08-01T14:38:28.531Z,58.50
2017-08-01T14:40:56.084Z,59.20
2017-08-01T14:43:23.601Z,60.40
2017-08-01T14:45:51.122Z,62.30
2017-08-01T14:48:18.662Z,66.90
2017-08-01T14:50:46.179Z,68.70
2017-08-01T14:53:13.687Z,64.90
2017-08-01T14:55:41.219Z,63.10
2017-08-01T14:58:09.123Z,70.50
2017-08-01T15:00:36.618Z,70.50
2017-08-01T15:03:04.143Z,72.90
2017-08-01T15:05:31.655Z,72.60
2017-08-01T15:07:59.572Z,70.60
2017-08-01T15:10:27.147Z,70.60
2017-08-01T15:12:54.686Z,69.30
2017-08-01T15:15:22.186Z,69.20
2017-08-01T15:17:49.720Z,68.00
2017-08-01T15:20:17.227Z,67.30
2017-08-01T15:22:44.739Z,66.80
2017-08-01T15:25:12.267Z,68.30
2017-08-01T15:27:39.766Z,68.20
2017-08-01T15:30:07.274Z,69.10
2017-08-01T15:32:35.215Z,66.80
2017-08-01T15:35:02.743Z,66.80
2017-08-01T15:37:30.252Z,67.90
2017-08-01T15:39:57.783Z,68.20
2017-08-01T15:42:25.310Z,68.60
2017-08-01T15:44:52.822Z,69.80
2017-08-01T15:47:20.331Z,71.60
2017-08-01T15:49:47.878Z,71.40
2017-08-01T15:52:15.876Z,72.80
2017-08-01T15:54:43.402Z,72.90
2017-08-01T15:57:10.946Z,72.10
2017-08-01T15:59:38.463Z,72.50
2017-08-01T16:02:06.011Z,71.30
2017-08-01T16:04:33.542Z,70.80
2017-08-01T16:07:01.450Z,72.60
2017-08-01T16:09:28.959Z,72.60
2017-08-01T16:11:56.892Z,72.60
2017-08-01T16:14:27.259Z,72.60
2017-08-01T16:16:55.178Z,75.30
2017-08-01T16:19:22.711Z,75.30
2017-08-01T16:21:50.241Z,76.50
2017-08-01T16:24:17.747Z,75.90
2017-08-01T16:26:45.298Z,75.50
2017-08-01T16:29:12.806Z,74.40
2017-08-01T16:31:40.308Z,75.20
2017-08-01T16:34:07.855Z,76.00
2017-08-01T16:36:35.763Z,78.40
2017-08-01T16:39:03.279Z,78.40
2017-08-01T16:41:31.220Z,79.60
2017-08-01T16:43:58.749Z,79.60
2017-08-01T16:46:26.266Z,80.40
2017-08-01T16:48:53.813Z,80.90
2017-08-01T16:51:21.309Z,81.20
2017-08-01T16:53:48.832Z,81.50
2017-08-01T16:56:16.367Z,81.30
2017-08-01T16:58:43.879Z,82.30
2017-08-01T17:01:11.787Z,82.60
2017-08-01T17:03:39.322Z,82.60
2017-08-01T17:06:06.830Z,85.00
2017-08-01T17:08:34.339Z,83.60
2017-08-01T17:11:01.926Z,83.40
2017-08-01T17:13:29.436Z,84.20
2017-08-01T17:15:56.950Z,83.10
2017-08-01T17:18:24.486Z,84.60
2017-08-01T17:20:52.050Z,84.90
2017-08-01T17:23:19.566Z,84.80
2017-08-01T17:25:47.084Z,84.70
2017-08-01T17:28:14.616Z,85.80
2017-08-01T17:30:42.530Z,86.10
2017-08-01T17:33:10.053Z,86.10
2017-08-01T17:35:37.604Z,84.80
2017-08-01T17:38:05.116Z,84.90
2017-08-01T17:40:32.645Z,84.70
2017-08-01T17:43:00.199Z,84.20
2017-08-01T17:45:27.710Z,86.00
2017-08-01T17:47:55.223Z,86.50
2017-08-01T17:50:22.773Z,88.90
2017-08-01T17:52:50.283Z,93.30
2017-08-01T17:55:17.796Z,97.10
2017-08-01T17:57:45.331Z,99.90
2017-08-01T18:00:12.830Z,99.90
2017-08-01T18:02:40.338Z,99.90
2017-08-01T18:05:07.867Z,99.90
2017-08-01T18:07:35.379Z,99.90
2017-08-01T18:10:03.291Z,99.90
2017-08-01T18:12:30.839Z,99.90
2017-08-01T18:14:58.353Z,99.90
2017-08-01T18:17:25.854Z,99.90
2017-08-01T18:19:53.382Z,99.90
2017-08-01T18:22:20.890Z,99.90
2017-08-01T18:24:48.411Z,99.90
2017-08-01T18:27:16.350Z,99.90
2017-08-01T18:29:43.851Z,99.90
2017-08-01T18:32:11.355Z,99.90
2017-08-01T18:34:38.888Z,99.90
2017-08-01T18:37:06.398Z,99.90
2017-08-01T18:39:33.907Z,99.90
2017-08-01T18:42:01.447Z,99.90
2017-08-01T18:44:29.358Z,99.90
2017-08-01T18:46:57.226Z,99.90
2017-08-01T18:49:24.766Z,99.90
2017-08-01T18:51:52.286Z,99.90
2017-08-01T18:54:19.800Z,99.90
2017-08-01T18:56:47.326Z,99.90
2017-08-01T18:59:15.231Z,99.90
2017-08-01T19:01:42.744Z,99.90
2017-08-01T19:04:10.670Z,99.90
2017-08-01T19:06:38.178Z,99.90
2017-08-01T19:09:05.708Z,99.90
2017-08-01T19:11:33.259Z,99.90
2017-08-01T19:14:00.768Z,99.90
2017-08-01T19:16:28.674Z,99.90
2017-08-01T19:18:56.208Z,99.90
2017-08-01T19:21:23.727Z,99.90
2017-08-01T19:23:51.246Z,99.90
2017-08-01T19:26:18.788Z,99.90
2017-08-01T19:28:46.323Z,99.90
2017-08-01T19:31:14.239Z,99.90
2017-08-01T19:33:41.786Z,99.90
2017-08-01T19:36:09.329Z,99.90
2017-08-01T19:38:36.863Z,99.90
2017-08-01T19:41:04.376Z,99.90
2017-08-01T19:43:31.904Z,99.90
2017-08-01T19:45:59.827Z,99.90
2017-08-01T19:48:27.343Z,99.90
2017-08-01T19:50:54.846Z,99.90
2017-08-01T19:53:22.393Z,99.90
2017-08-01T19:55:49.899Z,99.90
2017-08-01T19:58:17.431Z,99.90
2017-08-01T20:00:44.943Z,99.90
2017-08-01T20:03:12.475Z,99.90
2017-08-01T20:05:40.015Z,99.90
2017-08-01T20:08:07.528Z,99.90
2017-08-01T20:10:35.070Z,99.90
2017-08-01T20:13:03.011Z,99.90
2017-08-01T20:15:30.515Z,99.90
2017-08-01T20:17:58.023Z,99.90
2017-08-01T20:20:25.561Z,99.90
2017-08-01T20:22:53.070Z,99.90
2017-08-01T20:25:20.584Z,99.90
2017-08-01T20:27:48.116Z,99.90
2017-08-01T20:30:16.014Z,99.90
2017-08-01T20:32:43.524Z,99.90
2017-08-01T20:35:11.056Z,99.90
2017-08-01T20:37:38.567Z,99.90
2017-08-01T20:40:06.074Z,99.90
2017-08-01T20:42:33.612Z,99.90
2017-08-01T20:45:01.118Z,99.90
2017-08-01T20:47:28.627Z,99.90
2017-08-01T20:49:56.167Z,99.90
2017-08-01T20:52:23.683Z,99.90
2017-08-01T20:54:51.200Z,99.90
2017-08-01T20:57:18.738Z,99.90
2017-08-01T20:59:46.648Z,99.90
2017-08-01T21:02:14.159Z,99.90
2017-08-01T21:04:41.708Z,99.90
2017-08-01T21:07:09.215Z,99.90
2017-08-01T21:09:36.726Z,99.90
2017-08-01T21:12:04.258Z,99.90
2017-08-01T21:14:31.780Z,99.90
2017-08-01T21:16:59.286Z,99.90
2017-08-01T21:19:26.819Z,99.90
2017-08-01T21:21:54.326Z,99.90
2017-08-01T21:24:21.835Z,99.90
2017-08-01T21:26:49.371Z,99.90
2017-08-01T21:29:17.279Z,99.90
2017-08-01T21:31:44.791Z,99.90
2017-08-01T21:34:12.690Z,99.90
2017-08-01T21:36:40.222Z,99.90
2017-08-01T21:39:07.739Z,99.90
2017-08-01T21:41:35.274Z,99.90
2017-08-01T21:44:02.792Z,99.90
2017-08-01T21:46:30.319Z,99.90
2017-08-01T21:48:57.861Z,99.90
2017-08-01T21:51:25.396Z,99.90
2017-08-01T21:53:52.931Z,99.90
2017-08-01T21:56:20.471Z,99.90
2017-08-01T21:58:47.983Z,99.90
2017-08-01T22:01:15.695Z,99.90
2017-08-01T22:03:43.284Z,99.90
2017-08-01T22:06:10.795Z,99.90
2017-08-01T22:08:38.311Z,99.90
2017-08-01T22:11:05.850Z,99.90
2017-08-01T22:13:33.362Z,99.90
2017-08-01T22:16:00.870Z,99.90
2017-08-01T22:18:28.406Z,99.90
2017-08-01T22:20:55.923Z,99.90
2017-08-01T22:23:23.827Z,99.90
2017-08-01T22:25:51.363Z,99.90
2017-08-01T22:28:18.896Z,99.90
2017-08-01T22:30:46.814Z,99.90
2017-08-01T22:33:14.352Z,99.90
2017-08-01T22:35:41.887Z,99.90
2017-08-01T22:38:09.419Z,99.90
2017-08-01T22:40:36.928Z,99.90
2017-08-01T22:43:04.459Z,99.90
2017-08-01T22:45:31.982Z,99.90
2017-08-01T22:47:59.518Z,99.90
2017-08-01T22:50:27.058Z,99.90
2017-08-01T22:52:55.118Z,99.90
2017-08-01T22:55:22.658Z,99.90
2017-08-01T22:57:50.206Z,99.90
2017-08-01T23:00:18.384Z,99.90
2017-08-01T23:02:45.921Z,99.90
2017-08-01T23:05:13.462Z,99.90
2017-08-01T23:07:40.966Z,99.90
2017-08-01T23:10:08.479Z,99.90
2017-08-01T23:12:36.064Z,99.90
2017-08-01T23:15:03.575Z,99.90
2017-08-01T23:17:31.092Z,99.90
2017-08-01T23:19:58.654Z,99.90
2017-08-01T23:22:26.163Z,99.90
2017-08-01T23:24:53.676Z,99.90
2017-08-01T23:27:21.228Z,99.90
2017-08-01T23:29:48.734Z,99.90
2017-08-01T23:32:16.271Z,99.90
2017-08-01T23:34:43.784Z,99.90
2017-08-01T23:37:11.695Z,99.90
2017-08-01T23:39:39.231Z,99.90
2017-08-01T23:42:06.747Z,99.90
2017-08-01T23:44:34.267Z,99.90
2017-08-01T23:47:01.822Z,99.90
2017-08-01T23:49:29.349Z,99.90
2017-08-01T23:51:56.860Z,99.90
2017-08-01T23:54:24.401Z,99.90
2017-08-01T23:56:51.902Z,99.90
2017-08-01T23:59:19.415Z,99.90
